Details From CYYD - Smithers
To CYPR - Prince Rupert
Flight Number -
Tags Generated
Created
Modified
Stats Distance 118 nm / 219 km
Max Altitude 0 ft / 0 m
Waypoints 2
Social Downloads 0
Likes 0
Share VATSIM

Download

Looking for another format? Having issues loading an existing format? Contact us
Advertisement - Login to hide

Notes

Generated

Route

CYYD CYPR

ID Type Via Altitude Latitude Longitude Leg Dist Tot Dist Heading (true) Name
O CYYD APT - 0 ft / 0 m 54.83157˚ -127.18444˚ - 0 nm - -
O CYPR APT - 0 ft / 0 m 54.29334˚ -130.45165˚ 118 nm 118 nm 255° / 253° -

Altitude Profile

Advertisement - Login to hide

CYYD

Details ICAO CYYD (YYD)
Name SMITHERS
Region Canada
Timezone America/Vancouver (UTC-7.0)
Stats Elevation 1,712 ft / 522 m (AMSL)
Location 54.824812° -127.182587°
Runways 1
Magnetic Variation 18.151° E

METAR

CYYD 212300Z 19012KT 25SM SCT065 BKN090 16/05 A2995 RMK SC4AC3 SLP151 DENSITY ALT 2200FT

Decode

TAF

TAF CYYD 211838Z 2119/2206 17007KT P6SM BKN060 OVC090 TEMPO 2119/2121 P6SM -RA BKN040 OVC060 FM212100 18006KT P6SM BKN060 BECMG 2202/2204 24008KT RMK NXT FCST BY 220100Z

Decode

Departure Runways

ID Width Length Bearing (true) Bearing (mag) Surface Threshold Offset Overrun Length
15 150 ft / 46 m 4,992 ft / 1,521 m 171.00° 152.85° Asphalt 0 ft / 0 m 0 ft / 0 m
33 150 ft / 46 m 4,992 ft / 1,521 m 351.01° 332.86° Asphalt 0 ft / 0 m 0 ft / 0 m

CYPR

Details ICAO CYPR (YPR)
Name Prince Rupert
Region Canada
Timezone America/Vancouver (UTC-7.0)
Stats Elevation 116 ft / 35 m (AMSL)
Location 54.286114° -130.444717°
Runways 1
Magnetic Variation 18.162° E

METAR

CYPR 212300Z AUTO 15011G22KT 9SM SCT040 BKN047 OVC085 12/09 A2994 RMK SLP141

Decode

TAF

TAF CYPR 211838Z 2119/2207 13012G25KT P6SM -RA SCT020 OVC030 TEMPO 2119/2207 3SM -SHRA BR BKN020 OVC030 RMK FCST BASED ON AUTO OBS. NXT FCST BY 220100Z

Decode

Destination Runways

ID Width Length Bearing (true) Bearing (mag) Surface Threshold Offset Overrun Length
13 200 ft / 61 m 6,043 ft / 1,842 m 150.73° 132.57° Asphalt 0 ft / 0 m 0 ft / 0 m
31 200 ft / 61 m 6,043 ft / 1,842 m 330.74° 312.58° Asphalt 0 ft / 0 m 0 ft / 0 m

Approach Navaids

Runway Type Ident Frequency Range Bearing (true) Bearing (mag) Slope Elevation
13 Localiser IPR 109.70 MHz 18 nm / 33 km 152.00° 133.84° - 91 ft / 28 m (AMSL)
13 Glidescope IPR 109.70 MHz 10 nm / 19 km 152.00° 133.84° 3.00° 91 ft / 28 m (AMSL)